createdAt,value
2022-12-18T00:00:08.508Z,-1.17
2022-12-18T00:02:37.012Z,-1.06
2022-12-18T00:05:06.011Z,-0.92
2022-12-18T00:07:34.235Z,-1.08
2022-12-18T00:10:02.479Z,-1.30
2022-12-18T00:12:30.708Z,-1.02
2022-12-18T00:14:58.932Z,-1.09
2022-12-18T00:17:28.515Z,-0.52
2022-12-18T00:19:56.758Z,-1.00
2022-12-18T00:22:25.240Z,-1.01
2022-12-18T00:24:53.561Z,-1.24
2022-12-18T00:27:21.811Z,-1.30
2022-12-18T00:29:50.187Z,-1.64
2022-12-18T00:32:18.528Z,-1.57
2022-12-18T00:34:48.184Z,-1.21
2022-12-18T00:37:19.996Z,-1.61
2022-12-18T00:39:50.477Z,-1.59
2022-12-18T00:42:36.374Z,-1.63
2022-12-18T00:45:10.705Z,-1.48
2022-12-18T00:47:40.955Z,-1.54
2022-12-18T00:50:11.586Z,-1.29
2022-12-18T00:52:39.844Z,-1.72
2022-12-18T00:55:08.938Z,-1.64
2022-12-18T00:57:37.221Z,-1.67
2022-12-18T01:00:07.193Z,-1.40
2022-12-18T01:02:35.622Z,-0.88
2022-12-18T01:05:04.167Z,-1.12
2022-12-18T01:07:33.745Z,-1.34
2022-12-18T01:10:02.016Z,-1.68
2022-12-18T01:12:30.245Z,-1.28
2022-12-18T01:14:58.738Z,-1.23
2022-12-18T01:17:27.069Z,-0.74
2022-12-18T01:19:55.298Z,-0.83
2022-12-18T01:22:23.539Z,-0.66
2022-12-18T01:24:53.153Z,-1.28
2022-12-18T01:27:21.421Z,-0.64
2022-12-18T01:29:49.654Z,-0.51
2022-12-18T01:32:17.948Z,-0.53
2022-12-18T01:34:46.267Z,-0.77
2022-12-18T01:37:14.642Z,-1.08
2022-12-18T01:39:43.133Z,-0.71
2022-12-18T01:42:15.811Z,-0.46
2022-12-18T01:45:03.819Z,-0.48
2022-12-18T01:47:37.923Z,-0.47
2022-12-18T01:50:10.931Z,-0.17
2022-12-18T01:52:39.558Z,0.01
2022-12-18T01:55:09.301Z,-0.51
2022-12-18T01:57:39.492Z,-0.77
2022-12-18T02:00:11.094Z,-0.60
2022-12-18T02:02:40.181Z,-0.49
2022-12-18T02:05:09.779Z,-0.56
2022-12-18T02:07:45.596Z,-0.37
2022-12-18T02:10:18.103Z,-0.36
2022-12-18T02:12:51.950Z,-0.28
2022-12-18T02:15:25.197Z,-0.33
2022-12-18T02:17:57.476Z,-0.38
2022-12-18T02:20:30.522Z,-0.36
2022-12-18T02:23:08.865Z,-0.47
2022-12-18T02:25:58.585Z,-0.27
2022-12-18T02:28:30.871Z,-0.54
2022-12-18T02:31:01.100Z,-0.33
2022-12-18T02:33:30.162Z,-0.05
2022-12-18T02:35:59.438Z,-0.41
2022-12-18T02:38:28.024Z,-0.34
2022-12-18T02:40:58.325Z,-0.52
2022-12-18T02:43:26.643Z,-0.15
2022-12-18T02:45:57.846Z,-0.34
2022-12-18T02:48:28.740Z,-0.30
2022-12-18T02:51:02.519Z,-0.53
2022-12-18T02:53:35.813Z,-0.41
2022-12-18T02:56:09.298Z,-0.60
2022-12-18T02:58:43.265Z,-0.16
2022-12-18T03:01:14.603Z,-0.16
2022-12-18T03:03:45.909Z,0.40
2022-12-18T03:06:19.788Z,-0.35
2022-12-18T03:08:50.742Z,-0.48
2022-12-18T03:11:40.824Z,-0.44
2022-12-18T03:14:10.024Z,-0.83
2022-12-18T03:16:38.928Z,-0.58
2022-12-18T03:19:12.375Z,-0.58
2022-12-18T03:21:44.500Z,-0.55
2022-12-18T03:24:13.450Z,-0.22
2022-12-18T03:26:46.064Z,-0.58
2022-12-18T03:29:19.204Z,-0.15
2022-12-18T03:31:50.975Z,-0.30
2022-12-18T03:34:22.414Z,-0.31
2022-12-18T03:36:50.703Z,-0.15
2022-12-18T03:39:18.967Z,-0.51
2022-12-18T03:41:53.392Z,-0.80
2022-12-18T03:44:28.517Z,-0.71
2022-12-18T03:47:01.336Z,-0.60
2022-12-18T03:49:35.692Z,-0.18
2022-12-18T03:52:07.692Z,-0.21
2022-12-18T03:54:36.726Z,0.03
2022-12-18T03:57:09.392Z,-0.36
2022-12-18T03:59:39.091Z,-0.18
2022-12-18T04:02:09.282Z,-0.13
2022-12-18T04:04:38.361Z,-0.31
2022-12-18T04:07:06.923Z,0.11
2022-12-18T04:09:36.227Z,-0.13
2022-12-18T04:12:06.101Z,-0.40
2022-12-18T04:14:36.587Z,-0.56
2022-12-18T04:17:04.710Z,-0.44
2022-12-18T04:19:32.840Z,-0.56
2022-12-18T04:22:01.141Z,-0.37
2022-12-18T04:24:29.346Z,-0.52
2022-12-18T04:26:57.567Z,-0.86
2022-12-18T04:29:27.245Z,-0.61
2022-12-18T04:31:55.499Z,-0.22
2022-12-18T04:34:23.781Z,0.12
2022-12-18T04:36:52.127Z,0.37
2022-12-18T04:39:20.451Z,-0.13
2022-12-18T04:41:48.792Z,0.02
2022-12-18T04:44:17.034Z,0.02
2022-12-18T04:46:47.104Z,0.44
2022-12-18T04:49:15.498Z,-0.20
2022-12-18T04:51:43.728Z,0.04
2022-12-18T04:54:11.972Z,0.04
2022-12-18T04:56:40.800Z,-0.20
2022-12-18T04:59:09.031Z,0.34
2022-12-18T05:01:37.355Z,0.03
2022-12-18T05:04:07.395Z,0.30
2022-12-18T05:06:35.753Z,0.13
2022-12-18T05:09:04.035Z,0.44
2022-12-18T05:11:32.291Z,0.51
2022-12-18T05:14:00.543Z,0.67
2022-12-18T05:16:28.933Z,0.85
2022-12-18T05:18:57.342Z,0.80
2022-12-18T05:21:26.969Z,0.50
2022-12-18T05:23:55.210Z,1.16
2022-12-18T05:26:23.497Z,0.91
2022-12-18T05:28:51.747Z,0.45
2022-12-18T05:31:20.014Z,0.26
2022-12-18T05:33:48.386Z,0.20
2022-12-18T05:36:16.662Z,0.42
2022-12-18T05:38:46.320Z,0.13
2022-12-18T05:41:14.570Z,-0.18
2022-12-18T05:43:43.235Z,-0.06
2022-12-18T05:46:15.075Z,0.31
2022-12-18T05:48:43.572Z,0.02
2022-12-18T05:51:13.629Z,0.17
2022-12-18T05:53:42.315Z,0.52
2022-12-18T05:56:14.394Z,0.75
2022-12-18T05:58:43.018Z,0.15
2022-12-18T06:01:13.491Z,0.20
2022-12-18T06:03:41.890Z,0.34
2022-12-18T06:06:17.514Z,0.42
2022-12-18T06:08:46.709Z,0.32
2022-12-18T06:11:19.787Z,0.51
2022-12-18T06:13:48.446Z,0.22
2022-12-18T06:16:16.933Z,0.39
2022-12-18T06:18:45.312Z,-0.16
2022-12-18T06:21:13.864Z,-0.26
2022-12-18T06:23:43.076Z,-0.26
2022-12-18T06:26:12.673Z,-0.06
2022-12-18T06:28:42.362Z,-0.21
2022-12-18T06:31:11.787Z,-0.38
2022-12-18T06:33:41.060Z,0.19
2022-12-18T06:36:12.060Z,0.29
2022-12-18T06:38:42.474Z,0.13
2022-12-18T06:41:11.578Z,-0.23
2022-12-18T06:43:40.188Z,0.05
2022-12-18T06:46:10.789Z,-0.14
2022-12-18T06:48:39.081Z,0.15
2022-12-18T06:51:07.673Z,-0.29
2022-12-18T06:53:35.967Z,-0.73
2022-12-18T06:56:09.776Z,-0.65
2022-12-18T06:58:39.201Z,-0.33
2022-12-18T07:01:11.174Z,-0.06
2022-12-18T07:03:40.535Z,-0.36
2022-12-18T07:06:15.921Z,-0.15
2022-12-18T07:08:44.209Z,-0.40
2022-12-18T07:11:12.492Z,-0.66
2022-12-18T07:13:41.068Z,-0.26
2022-12-18T07:16:18.352Z,-0.51
2022-12-18T07:18:50.764Z,-0.50
2022-12-18T07:21:21.086Z,-0.65
2022-12-18T07:23:49.589Z,-0.26
2022-12-18T07:26:19.750Z,-0.68
2022-12-18T07:28:48.135Z,-0.23
2022-12-18T07:31:19.087Z,-0.26
2022-12-18T07:33:47.791Z,0.01
2022-12-18T07:36:16.438Z,-0.39
2022-12-18T07:38:44.994Z,-0.38
2022-12-18T07:41:14.699Z,-0.29
2022-12-18T07:43:43.981Z,-1.03
2022-12-18T07:46:14.727Z,-0.61
2022-12-18T07:48:46.260Z,-0.66
2022-12-18T07:51:18.557Z,-0.34
2022-12-18T07:53:49.702Z,-0.50
2022-12-18T07:56:30.493Z,-0.56
2022-12-18T07:59:00.410Z,-0.38
2022-12-18T08:01:29.210Z,-0.01
2022-12-18T08:03:59.530Z,-0.91
2022-12-18T08:06:27.903Z,-0.97
2022-12-18T08:08:57.178Z,-0.74
2022-12-18T08:11:27.451Z,-0.59
2022-12-18T08:13:55.961Z,-0.36
2022-12-18T08:16:24.606Z,-0.05
2022-12-18T08:18:54.070Z,-0.38
2022-12-18T08:21:27.216Z,0.20
2022-12-18T08:23:56.682Z,0.58
2022-12-18T08:26:25.604Z,-0.01
2022-12-18T08:28:55.213Z,-0.08
2022-12-18T08:31:23.847Z,-0.01
2022-12-18T08:33:54.487Z,-0.28
2022-12-18T08:36:25.529Z,0.44
2022-12-18T08:38:55.083Z,-0.69
2022-12-18T08:41:23.564Z,-0.66
2022-12-18T08:44:09.747Z,-0.79
2022-12-18T08:46:39.501Z,-0.86
2022-12-18T08:49:08.647Z,-0.62
2022-12-18T08:51:38.568Z,-0.44
2022-12-18T08:54:07.254Z,-0.23
2022-12-18T08:56:35.916Z,-0.33
2022-12-18T08:59:05.267Z,0.42
2022-12-18T09:01:33.748Z,0.25
2022-12-18T09:04:02.961Z,0.40
2022-12-18T09:06:31.185Z,0.65
2022-12-18T09:09:00.796Z,0.35
2022-12-18T09:11:31.006Z,0.60
2022-12-18T09:14:00.282Z,0.57
2022-12-18T09:16:32.650Z,0.84
2022-12-18T09:19:02.375Z,0.21
2022-12-18T09:21:32.672Z,-0.10
2022-12-18T09:24:09.083Z,-0.22
2022-12-18T09:26:37.926Z,0.59
2022-12-18T09:29:08.124Z,-0.11
2022-12-18T09:31:38.892Z,0.11
2022-12-18T09:34:07.143Z,-0.15
2022-12-18T09:36:35.386Z,-0.12
2022-12-18T09:39:07.883Z,0.23
2022-12-18T09:41:45.331Z,0.54
2022-12-18T09:44:20.062Z,0.12
2022-12-18T09:46:54.638Z,0.60
2022-12-18T09:49:25.835Z,0.31
2022-12-18T09:51:56.916Z,0.14
2022-12-18T09:54:28.423Z,0.33
2022-12-18T09:56:58.807Z,0.65
2022-12-18T09:59:29.362Z,0.55
2022-12-18T10:01:58.736Z,0.45
2022-12-18T10:04:30.429Z,-0.19
2022-12-18T10:07:08.895Z,-0.12
2022-12-18T10:09:42.123Z,0.02
2022-12-18T10:12:16.192Z,0.04
2022-12-18T10:14:51.776Z,-0.04
2022-12-18T10:17:26.117Z,-0.02
2022-12-18T10:19:58.984Z,-0.07
2022-12-18T10:22:42.526Z,-0.10
2022-12-18T10:25:21.225Z,-0.16
2022-12-18T10:27:53.975Z,0.45
2022-12-18T10:30:24.200Z,0.73
2022-12-18T10:32:52.439Z,0.58
2022-12-18T10:35:22.972Z,1.02
2022-12-18T10:38:08.055Z,0.46
2022-12-18T10:40:50.707Z,0.23
2022-12-18T10:43:25.546Z,0.15
2022-12-18T10:46:19.195Z,0.44
2022-12-18T10:48:54.020Z,0.92
2022-12-18T10:51:24.333Z,0.68
2022-12-18T10:54:00.011Z,0.88
2022-12-18T10:56:30.338Z,0.73
2022-12-18T10:59:03.132Z,1.26
2022-12-18T11:01:49.019Z,0.92
2022-12-18T11:04:20.955Z,1.56
2022-12-18T11:06:57.226Z,1.92
2022-12-18T11:09:26.907Z,2.41
2022-12-18T11:11:56.519Z,1.89
2022-12-18T11:14:27.753Z,2.03
2022-12-18T11:17:24.172Z,2.10
2022-12-18T11:19:45.320Z,2.41
2022-12-18T11:22:22.378Z,2.73
2022-12-18T11:25:29.514Z,2.84
2022-12-18T11:27:50.146Z,2.48
2022-12-18T11:30:26.235Z,1.38
2022-12-18T11:32:56.572Z,1.81
2022-12-18T11:35:32.857Z,1.82
2022-12-18T11:38:06.589Z,1.89
2022-12-18T11:40:41.322Z,2.42
2022-12-18T11:43:12.949Z,3.00
2022-12-18T11:45:45.426Z,2.58
2022-12-18T11:48:18.333Z,2.09
2022-12-18T11:50:51.855Z,2.82
2022-12-18T11:53:20.748Z,2.74
2022-12-18T11:55:56.958Z,2.02
2022-12-18T11:58:42.190Z,2.54
2022-12-18T12:01:18.547Z,1.83
2022-12-18T12:04:07.749Z,2.28
2022-12-18T12:06:40.158Z,1.83
2022-12-18T12:09:15.075Z,2.05
2022-12-18T12:11:52.104Z,1.52
2022-12-18T12:14:45.015Z,1.56
2022-12-18T12:17:21.795Z,2.88
2022-12-18T12:19:54.969Z,1.42
2022-12-18T12:22:28.172Z,2.46
2022-12-18T12:25:06.333Z,1.88
2022-12-18T12:27:42.502Z,2.06
2022-12-18T12:30:13.253Z,2.29
2022-12-18T12:32:55.596Z,2.07
2022-12-18T12:35:32.474Z,1.56
2022-12-18T12:38:07.617Z,1.42
2022-12-18T12:40:58.798Z,1.58
2022-12-18T12:43:32.997Z,1.39
2022-12-18T12:46:03.239Z,0.75
2022-12-18T12:48:38.462Z,1.66
2022-12-18T12:51:13.507Z,0.99
2022-12-18T12:53:42.603Z,0.93
2022-12-18T12:56:12.547Z,1.74
2022-12-18T12:58:49.088Z,1.39
2022-12-18T13:01:27.280Z,2.40
2022-12-18T13:04:04.551Z,1.64
2022-12-18T13:06:44.739Z,1.87
2022-12-18T13:09:13.195Z,2.11
2022-12-18T13:12:00.828Z,1.63
2022-12-18T13:14:31.447Z,1.28
2022-12-18T13:17:17.768Z,1.24
2022-12-18T13:19:51.198Z,1.38
2022-12-18T13:22:23.694Z,1.88
2022-12-18T13:24:52.085Z,1.67
2022-12-18T13:27:48.723Z,1.12
2022-12-18T13:30:45.283Z,1.99
2022-12-18T13:36:39.264Z,2.47
2022-12-18T13:39:35.883Z,1.53
2022-12-18T13:42:59.017Z,1.34
2022-12-18T13:46:01.438Z,1.23
2022-12-18T13:48:32.779Z,1.25
2022-12-18T13:51:04.477Z,1.39
2022-12-18T13:53:38.525Z,1.56
2022-12-18T13:56:07.877Z,1.26
2022-12-18T13:58:36.895Z,0.99
2022-12-18T14:01:05.781Z,0.69
2022-12-18T14:03:34.281Z,0.85
2022-12-18T14:06:05.685Z,0.59
2022-12-18T14:08:41.674Z,0.60
2022-12-18T14:11:21.628Z,0.13
2022-12-18T14:13:50.666Z,1.20
2022-12-18T14:16:20.134Z,0.48
2022-12-18T14:18:51.247Z,0.81
2022-12-18T14:21:22.371Z,0.98
2022-12-18T14:24:05.472Z,1.12
2022-12-18T14:26:34.799Z,1.21
2022-12-18T14:29:16.771Z,1.31
2022-12-18T14:31:46.137Z,1.42
2022-12-18T14:34:17.696Z,1.02
2022-12-18T14:36:54.226Z,0.62
2022-12-18T14:39:24.898Z,0.17
2022-12-18T14:41:54.360Z,0.22
2022-12-18T14:44:23.552Z,-0.10
2022-12-18T14:46:52.764Z,-0.45
2022-12-18T14:49:25.690Z,-0.04
2022-12-18T14:51:55.708Z,-0.27
2022-12-18T14:54:27.110Z,-0.29
2022-12-18T14:57:00.410Z,0.08
2022-12-18T14:59:29.312Z,-0.40
2022-12-18T15:02:04.315Z,-0.32
2022-12-18T15:04:36.353Z,-0.52
2022-12-18T15:07:13.910Z,-0.35
2022-12-18T15:09:45.523Z,-0.39
2022-12-18T15:12:27.703Z,-0.31
2022-12-18T15:14:56.121Z,-0.63
2022-12-18T15:17:25.686Z,-0.61
2022-12-18T15:20:01.173Z,-0.37
2022-12-18T15:22:31.173Z,-0.66
2022-12-18T15:25:01.400Z,-0.08
2022-12-18T15:27:32.860Z,0.06
2022-12-18T15:30:22.494Z,-0.11
2022-12-18T15:32:52.171Z,-0.08
2022-12-18T15:35:23.165Z,0.30
2022-12-18T15:37:52.324Z,0.33
2022-12-18T15:40:23.648Z,-0.44
2022-12-18T15:43:24.068Z,0.05
2022-12-18T15:45:52.459Z,-0.23
2022-12-18T15:48:23.631Z,0.42
2022-12-18T15:50:53.020Z,-0.21
2022-12-18T15:53:21.405Z,-0.40
2022-12-18T15:56:09.943Z,-0.22
2022-12-18T15:58:43.894Z,-0.32
2022-12-18T16:01:13.170Z,-0.43
2022-12-18T16:03:45.548Z,-0.23
2022-12-18T16:06:14.241Z,0.19
2022-12-18T16:08:43.595Z,0.19
2022-12-18T16:11:38.696Z,-0.37
2022-12-18T16:14:08.723Z,-0.27
2022-12-18T16:16:37.292Z,-0.45
2022-12-18T16:19:05.577Z,-0.27
2022-12-18T16:21:34.177Z,-0.59
2022-12-18T16:24:02.738Z,-0.05
2022-12-18T16:26:32.423Z,-0.17
2022-12-18T16:29:00.827Z,-0.26
2022-12-18T16:31:29.258Z,-0.60
2022-12-18T16:34:14.215Z,-0.47
2022-12-18T16:36:42.521Z,-0.73
2022-12-18T16:39:10.819Z,-0.60
2022-12-18T16:41:40.550Z,-0.64
2022-12-18T16:44:08.906Z,-0.32
2022-12-18T16:46:37.227Z,-0.40
2022-12-18T16:49:05.933Z,-0.20
2022-12-18T16:51:35.442Z,-0.04
2022-12-18T16:54:07.965Z,-0.37
2022-12-18T16:56:40.063Z,-0.14
2022-12-18T16:59:10.092Z,-0.46
2022-12-18T17:01:38.558Z,0.09
2022-12-18T17:04:07.688Z,-0.11
2022-12-18T17:06:38.181Z,-0.12
2022-12-18T17:09:08.030Z,-0.25
2022-12-18T17:11:36.898Z,-0.40
2022-12-18T17:14:09.524Z,-0.35
2022-12-18T17:16:37.867Z,-0.38
2022-12-18T17:19:12.267Z,-0.23
2022-12-18T17:21:45.392Z,-0.38
2022-12-18T17:24:13.766Z,-0.48
2022-12-18T17:26:42.301Z,-0.73
2022-12-18T17:29:14.394Z,-0.49
2022-12-18T17:31:42.971Z,-0.79
2022-12-18T17:34:11.749Z,-0.32
2022-12-18T17:36:41.513Z,-0.34
2022-12-18T17:39:10.031Z,-0.25
2022-12-18T17:41:38.289Z,-0.36
2022-12-18T17:44:07.014Z,-0.91
2022-12-18T17:46:36.801Z,-0.40
2022-12-18T17:49:05.264Z,-0.11
2022-12-18T17:51:33.917Z,-0.44
2022-12-18T17:54:02.399Z,-0.27
2022-12-18T17:56:30.889Z,-0.22
2022-12-18T17:58:59.334Z,-0.37
2022-12-18T18:01:28.277Z,-0.69
2022-12-18T18:04:00.233Z,-0.55
2022-12-18T18:06:29.095Z,-0.45
2022-12-18T18:08:58.796Z,-0.54
2022-12-18T18:11:44.872Z,-0.32
2022-12-18T18:14:15.512Z,-0.47
2022-12-18T18:16:45.519Z,-0.38
2022-12-18T18:19:17.366Z,-0.23
2022-12-18T18:21:47.534Z,-0.83
2022-12-18T18:24:17.100Z,-0.23
2022-12-18T18:26:46.660Z,-0.25
2022-12-18T18:29:17.159Z,-0.35
2022-12-18T18:31:45.367Z,0.13
2022-12-18T18:34:18.239Z,-0.23
2022-12-18T18:36:46.856Z,-0.33
2022-12-18T18:39:15.897Z,-0.21
2022-12-18T18:41:48.250Z,-0.38
2022-12-18T18:44:17.405Z,-0.45
2022-12-18T18:46:45.918Z,-0.04
2022-12-18T18:49:14.870Z,-0.25
2022-12-18T18:51:44.625Z,-0.38
2022-12-18T18:54:13.042Z,-0.54
2022-12-18T18:57:11.643Z,-0.50
2022-12-18T18:59:32.032Z,-0.53
2022-12-18T19:02:04.042Z,-0.60
2022-12-18T19:04:33.696Z,-0.42
2022-12-18T19:07:04.102Z,-0.20
2022-12-18T19:09:32.408Z,-0.45
2022-12-18T19:12:17.846Z,-0.44
2022-12-18T19:14:46.215Z,-0.17
2022-12-18T19:17:14.521Z,-0.19
2022-12-18T19:19:43.542Z,-0.10
2022-12-18T19:22:14.094Z,-0.46
2022-12-18T19:24:42.246Z,-0.72
2022-12-18T19:27:11.037Z,-1.07
2022-12-18T19:29:39.737Z,-1.10
2022-12-18T19:32:08.160Z,-0.83
2022-12-18T19:34:36.387Z,-0.62
2022-12-18T19:37:05.186Z,-0.63
2022-12-18T19:39:34.968Z,-0.89
2022-12-18T19:42:03.243Z,-0.32
2022-12-18T19:44:31.662Z,-0.10
2022-12-18T19:46:59.871Z,-0.11
2022-12-18T19:49:28.542Z,-0.36
2022-12-18T19:51:56.791Z,-0.34
2022-12-18T19:54:25.749Z,-0.05
2022-12-18T19:56:56.157Z,0.38
2022-12-18T19:59:24.419Z,-0.17
2022-12-18T20:01:54.265Z,-0.06
2022-12-18T20:04:22.725Z,0.14
2022-12-18T20:06:52.302Z,-0.19
2022-12-18T20:09:21.350Z,-0.10
2022-12-18T20:11:50.128Z,0.17
2022-12-18T20:14:23.589Z,-0.13
2022-12-18T20:16:52.796Z,-0.18
2022-12-18T20:19:21.992Z,-0.25
2022-12-18T20:21:50.980Z,-0.22
2022-12-18T20:24:19.262Z,-0.12
2022-12-18T20:26:47.517Z,0.05
2022-12-18T20:29:15.736Z,0.12
2022-12-18T20:31:45.421Z,-0.33
2022-12-18T20:34:13.712Z,0.20
2022-12-18T20:36:42.200Z,-0.54
2022-12-18T20:39:12.211Z,-0.33
2022-12-18T20:41:41.711Z,-0.19
2022-12-18T20:44:22.662Z,-0.25
2022-12-18T20:46:55.529Z,-0.06
2022-12-18T20:49:24.303Z,0.02
2022-12-18T20:51:53.719Z,0.21
2022-12-18T20:54:22.618Z,0.59
2022-12-18T20:56:51.718Z,0.62
2022-12-18T20:59:20.521Z,0.38
2022-12-18T21:01:49.442Z,0.49
2022-12-18T21:04:19.947Z,0.87
2022-12-18T21:06:52.358Z,0.40
2022-12-18T21:09:22.675Z,0.12
2022-12-18T21:12:08.754Z,0.28
2022-12-18T21:14:39.353Z,-0.02
2022-12-18T21:17:07.600Z,-0.02
2022-12-18T21:19:37.635Z,0.25
2022-12-18T21:22:06.168Z,-0.06
2022-12-18T21:24:34.337Z,0.19
2022-12-18T21:27:02.695Z,0.05
2022-12-18T21:29:31.228Z,-0.33
2022-12-18T21:31:59.504Z,-0.29
2022-12-18T21:34:29.543Z,-0.22
2022-12-18T21:37:01.160Z,-0.10
2022-12-18T21:39:30.644Z,-0.39
2022-12-18T21:42:16.512Z,-0.65
2022-12-18T21:44:45.274Z,-0.05
2022-12-18T21:47:20.834Z,-0.64
2022-12-18T21:49:49.907Z,-0.19
2022-12-18T21:52:20.260Z,-0.26
2022-12-18T21:54:52.011Z,-0.30
2022-12-18T21:57:20.278Z,-0.31
2022-12-18T21:59:48.849Z,-0.66
2022-12-18T22:02:19.559Z,-0.72
2022-12-18T22:04:48.705Z,-0.43
2022-12-18T22:07:18.954Z,-0.69
2022-12-18T22:09:48.375Z,-0.87
2022-12-18T22:12:35.362Z,-0.59
2022-12-18T22:15:04.832Z,-0.20
2022-12-18T22:17:33.253Z,-0.26
2022-12-18T22:20:01.580Z,-0.21
2022-12-18T22:22:31.320Z,-0.14
2022-12-18T22:24:59.634Z,-0.79
2022-12-18T22:27:27.886Z,-0.96
2022-12-18T22:30:04.256Z,-1.03
2022-12-18T22:32:33.152Z,-1.05
2022-12-18T22:35:06.872Z,-1.00
2022-12-18T22:37:37.859Z,-1.25
2022-12-18T22:40:07.605Z,-1.21
2022-12-18T22:42:36.875Z,-1.27
2022-12-18T22:45:05.745Z,-1.01
2022-12-18T22:47:33.955Z,-1.22
2022-12-18T22:50:02.229Z,-1.22
2022-12-18T22:52:30.450Z,-1.30
2022-12-18T22:55:00.079Z,-1.28
2022-12-18T22:57:29.562Z,-1.02
2022-12-18T22:59:57.818Z,-1.57
2022-12-18T23:02:26.282Z,-1.18
2022-12-18T23:04:54.655Z,-1.36
2022-12-18T23:07:22.938Z,-1.16
2022-12-18T23:09:51.466Z,-1.18
2022-12-18T23:12:29.331Z,-1.24
2022-12-18T23:14:57.685Z,-1.10
2022-12-18T23:17:25.966Z,-1.00
2022-12-18T23:19:54.184Z,-1.52
2022-12-18T23:22:22.490Z,-1.19
2022-12-18T23:24:50.723Z,-1.41
2022-12-18T23:27:18.935Z,-1.42
2022-12-18T23:29:48.547Z,-1.74
2022-12-18T23:32:17.500Z,-1.60
2022-12-18T23:34:45.683Z,-1.47
2022-12-18T23:37:25.028Z,-1.43
2022-12-18T23:40:02.316Z,-1.15
2022-12-18T23:42:30.509Z,-1.16
2022-12-18T23:45:00.159Z,-1.17
2022-12-18T23:47:32.070Z,-1.18
2022-12-18T23:50:00.353Z,-0.99
2022-12-18T23:52:29.009Z,-0.90
2022-12-18T23:54:57.288Z,-0.56
2022-12-18T23:57:25.575Z,-0.74
2022-12-18T23:59:55.120Z,-0.85
